Time;durP1;ratioP1;P1;durP2;ratioP2;P2;SDS_P1;SDS_P2;PMS_P1;PMS_P2;Temp;Humidity;BMP_temperature;BMP_pressure;BME280_temperature;BME280_humidity;BME280_pressure;Samples;Min_cycle;Max_cycle;Signal;HPM_P1;HPM_P2
2021/09/11 00:01:36;;;;;;;43.77;39.10;;;17.80;99.90;;;;;;4405740;32;20189;-72
2021/09/11 00:04:02;;;;;;;41.90;37.80;;;17.70;99.90;;;;;;4405120;32;20164;-71
2021/09/11 00:06:29;;;;;;;42.13;37.67;;;17.70;99.90;;;;;;4405255;32;20156;-71
2021/09/11 00:08:56;;;;;;;40.07;35.97;;;17.50;99.90;;;;;;4404716;32;20174;-71
2021/09/11 00:11:23;;;;;;;36.27;32.97;;;17.40;99.90;;;;;;4393525;32;20164;-70
2021/09/11 00:13:50;;;;;;;40.37;35.60;;;17.30;99.90;;;;;;4394278;32;20144;-70
2021/09/11 00:16:18;;;;;;;37.53;33.73;;;17.30;99.90;;;;;;4400481;32;20176;-70
2021/09/11 00:18:45;;;;;;;33.83;29.70;;;17.20;99.90;;;;;;4391840;32;20148;-71
2021/09/11 00:21:11;;;;;;;34.00;30.73;;;17.10;99.90;;;;;;4400443;32;20163;-71
2021/09/11 00:23:39;;;;;;;35.97;32.53;;;17.10;99.90;;;;;;4401050;32;20171;-73
2021/09/11 00:26:06;;;;;;;33.23;29.83;;;17.10;99.90;;;;;;4406616;32;20590;-72
2021/09/11 00:28:33;;;;;;;33.60;30.37;;;17.10;99.90;;;;;;4405833;32;20166;-71
2021/09/11 00:31:00;;;;;;;34.60;31.20;;;17.10;99.90;;;;;;4399058;32;20156;-70
2021/09/11 00:33:28;;;;;;;34.17;30.70;;;17.00;99.90;;;;;;4390752;32;20216;-71
2021/09/11 00:35:55;;;;;;;34.33;30.77;;;17.10;99.90;;;;;;4397056;32;20221;-70
2021/09/11 00:38:22;;;;;;;34.70;31.47;;;16.90;99.90;;;;;;4405386;32;20148;-70
2021/09/11 00:40:49;;;;;;;31.27;28.50;;;16.90;99.90;;;;;;4405275;32;20160;-70
2021/09/11 00:43:21;;;;;;;33.87;30.67;;;16.90;99.90;;;;;;4406359;32;20206;-70
2021/09/11 00:45:48;;;;;;;37.03;32.97;;;16.90;99.90;;;;;;4390617;32;20464;-73
2021/09/11 00:48:15;;;;;;;35.27;31.83;;;16.90;99.90;;;;;;4392117;32;20599;-73
2021/09/11 00:50:43;;;;;;;34.80;31.33;;;16.90;99.90;;;;;;4391474;32;20229;-73
2021/09/11 00:53:12;;;;;;;36.33;32.40;;;16.90;99.90;;;;;;4405129;32;20178;-70
2021/09/11 00:55:39;;;;;;;32.23;28.83;;;16.80;99.90;;;;;;4393386;32;20606;-71
2021/09/11 00:58:06;;;;;;;32.53;29.20;;;16.80;99.90;;;;;;4390296;32;20167;-70
2021/09/11 01:00:33;;;;;;;32.53;29.30;;;16.70;99.90;;;;;;4390949;32;20160;-73
2021/09/11 01:03:00;;;;;;;33.90;30.43;;;16.70;99.90;;;;;;4390283;32;20152;-73
2021/09/11 01:05:27;;;;;;;32.90;30.03;;;16.60;99.90;;;;;;4390357;32;20187;-70
2021/09/11 01:07:55;;;;;;;32.60;29.50;;;16.60;99.90;;;;;;4391293;32;20215;-70
2021/09/11 01:10:22;;;;;;;32.07;28.70;;;16.60;99.90;;;;;;4391139;32;20576;-71
2021/09/11 01:12:50;;;;;;;36.17;32.30;;;16.60;99.90;;;;;;4395066;32;20152;-71
2021/09/11 01:15:17;;;;;;;33.03;29.57;;;16.50;99.90;;;;;;4395390;32;20168;-70
2021/09/11 01:17:46;;;;;;;33.93;30.53;;;16.50;99.90;;;;;;4390723;32;20206;-71
2021/09/11 01:20:14;;;;;;;35.40;29.93;;;16.40;99.90;;;;;;4392239;32;20144;-70
2021/09/11 01:22:40;;;;;;;42.27;34.00;;;16.40;99.90;;;;;;4393592;32;20584;-70
2021/09/11 01:25:11;;;;;;;34.10;30.50;;;16.40;99.90;;;;;;4409834;32;20167;-71
2021/09/11 01:27:38;;;;;;;35.47;28.50;;;16.40;99.90;;;;;;4373310;32;20601;-70
2021/09/11 01:30:08;;;;;;;34.70;29.83;;;16.40;99.90;;;;;;4394411;32;20657;-70
2021/09/11 01:32:35;;;;;;;35.67;28.73;;;16.30;99.90;;;;;;4395266;32;20255;-70
2021/09/11 01:35:02;;;;;;;42.87;31.77;;;16.20;99.90;;;;;;4409445;32;20212;-70
2021/09/11 01:37:29;;;;;;;35.63;30.33;;;16.20;99.90;;;;;;4408321;32;20152;-70
2021/09/11 01:39:56;;;;;;;47.70;34.83;;;16.20;99.90;;;;;;4408571;32;20198;-70
2021/09/11 01:42:26;;;;;;;39.10;32.67;;;16.20;99.90;;;;;;4408161;32;20149;-70
2021/09/11 01:44:56;;;;;;;40.40;31.63;;;16.20;99.90;;;;;;4394470;32;20156;-70
2021/09/11 01:47:23;;;;;;;49.63;34.97;;;16.10;99.90;;;;;;4392893;32;20190;-71
2021/09/11 01:49:50;;;;;;;37.23;29.37;;;16.10;99.90;;;;;;4393362;32;20155;-69
2021/09/11 01:52:17;;;;;;;36.70;27.57;;;16.20;99.90;;;;;;4393557;32;20178;-71
2021/09/11 01:54:44;;;;;;;39.97;31.00;;;16.10;99.90;;;;;;4394398;32;20468;-70
2021/09/11 01:57:12;;;;;;;36.27;28.30;;;16.10;99.90;;;;;;4403688;32;20222;-70
2021/09/11 01:59:41;;;;;;;35.37;30.17;;;16.00;99.90;;;;;;4407975;32;20167;-70
2021/09/11 02:02:09;;;;;;;35.70;28.90;;;16.10;99.90;;;;;;4395539;32;20211;-70
2021/09/11 02:04:37;;;;;;;33.53;29.50;;;16.00;99.90;;;;;;4393068;32;20210;-70
2021/09/11 02:07:05;;;;;;;30.03;26.33;;;16.10;99.90;;;;;;4393379;32;20507;-69
2021/09/11 02:09:33;;;;;;;31.10;26.60;;;16.10;99.90;;;;;;4392494;32;20180;-71
2021/09/11 02:12:00;;;;;;;28.87;24.93;;;16.00;99.90;;;;;;4393545;32;20178;-71
2021/09/11 02:14:27;;;;;;;33.83;29.33;;;16.00;99.90;;;;;;4398717;32;20566;-71
2021/09/11 02:16:55;;;;;;;36.13;25.63;;;16.00;99.90;;;;;;4409054;32;20152;-69
2021/09/11 02:19:22;;;;;;;33.17;25.53;;;15.90;99.90;;;;;;4409314;32;20571;-69
2021/09/11 02:21:49;;;;;;;31.07;27.07;;;15.90;99.90;;;;;;4402152;32;20152;-70
2021/09/11 02:24:16;;;;;;;29.60;25.07;;;15.90;99.90;;;;;;4392270;32;20203;-69
2021/09/11 02:26:43;;;;;;;33.27;26.50;;;15.90;99.90;;;;;;4399350;32;20171;-69
2021/09/11 02:29:10;;;;;;;29.87;23.90;;;15.90;99.90;;;;;;4407532;32;20175;-69
2021/09/11 02:31:37;;;;;;;30.00;23.57;;;15.90;99.90;;;;;;4402342;32;20230;-69
2021/09/11 02:34:05;;;;;;;30.17;25.90;;;15.80;99.90;;;;;;4407457;32;20579;-70
2021/09/11 02:36:32;;;;;;;32.60;24.90;;;15.90;99.90;;;;;;4402695;32;20159;-69
2021/09/11 02:38:59;;;;;;;36.47;25.87;;;15.90;99.90;;;;;;4392111;32;20170;-69
2021/09/11 02:41:25;;;;;;;31.30;24.87;;;15.90;99.90;;;;;;4393210;32;20192;-70
2021/09/11 02:43:52;;;;;;;36.27;29.73;;;15.90;99.90;;;;;;4392124;32;20152;-69
2021/09/11 02:46:19;;;;;;;35.93;28.63;;;15.90;99.90;;;;;;4393741;32;20174;-70
2021/09/11 02:48:46;;;;;;;34.40;28.47;;;15.90;99.90;;;;;;4391892;32;20514;-69
2021/09/11 02:51:15;;;;;;;35.57;27.30;;;15.90;99.90;;;;;;4394725;32;20219;-71
2021/09/11 02:53:42;;;;;;;39.73;30.97;;;15.90;99.90;;;;;;4407518;32;20485;-69
2021/09/11 02:56:09;;;;;;;37.50;28.00;;;15.90;99.90;;;;;;4405714;32;20172;-71
2021/09/11 02:58:36;;;;;;;39.00;29.27;;;15.90;99.90;;;;;;4395656;32;20225;-69
2021/09/11 03:01:02;;;;;;;35.03;28.27;;;16.00;99.90;;;;;;4391843;32;20152;-69
2021/09/11 03:03:29;;;;;;;41.03;32.07;;;16.20;99.90;;;;;;4407107;32;20172;-71
2021/09/11 03:05:56;;;;;;;41.00;31.03;;;16.20;99.90;;;;;;4407789;32;20197;-69
2021/09/11 03:08:24;;;;;;;40.17;32.60;;;16.20;99.90;;;;;;4405583;32;20159;-69
2021/09/11 03:10:51;;;;;;;48.43;32.93;;;16.30;99.90;;;;;;4407533;32;20572;-69
2021/09/11 03:13:18;;;;;;;47.63;31.23;;;16.30;99.90;;;;;;4394407;32;20214;-69
2021/09/11 03:15:45;;;;;;;45.83;31.47;;;16.30;99.90;;;;;;4406146;32;20585;-69
2021/09/11 03:18:12;;;;;;;40.27;32.03;;;16.30;99.90;;;;;;4396334;32;20179;-69
2021/09/11 03:20:39;;;;;;;44.30;34.33;;;16.30;99.90;;;;;;4391602;32;20167;-71
2021/09/11 03:23:06;;;;;;;43.37;32.33;;;16.40;99.90;;;;;;4403920;32;20175;-69
2021/09/11 03:25:34;;;;;;;48.43;33.90;;;16.30;99.90;;;;;;4406700;32;20237;-72
2021/09/11 03:28:01;;;;;;;46.27;31.73;;;16.40;99.90;;;;;;4404820;32;20186;-70
2021/09/11 03:30:28;;;;;;;52.40;35.00;;;16.40;99.90;;;;;;4406817;32;20156;-70
2021/09/11 03:32:55;;;;;;;44.33;34.73;;;16.40;99.90;;;;;;4407924;32;20156;-71
2021/09/11 03:35:23;;;;;;;44.60;35.07;;;16.40;99.90;;;;;;4408405;32;20143;-72
2021/09/11 03:37:50;;;;;;;47.07;34.53;;;16.40;99.90;;;;;;4398722;32;20445;-70
2021/09/11 03:40:17;;;;;;;46.10;36.23;;;16.40;99.90;;;;;;4391366;32;20222;-69
2021/09/11 03:42:45;;;;;;;48.20;35.67;;;16.50;99.90;;;;;;4390572;32;20194;-70
2021/09/11 03:45:12;;;;;;;43.70;32.90;;;16.50;99.90;;;;;;4391562;32;20166;-70
2021/09/11 03:47:39;;;;;;;43.23;34.07;;;16.50;99.90;;;;;;4397176;32;20159;-70
2021/09/11 03:50:08;;;;;;;49.47;36.97;;;16.60;99.90;;;;;;4403950;32;20253;-70
2021/09/11 03:52:35;;;;;;;42.50;31.27;;;16.50;99.90;;;;;;4380546;32;20167;-70
2021/09/11 03:55:03;;;;;;;53.50;37.03;;;16.50;99.90;;;;;;4379402;32;20646;-72
2021/09/11 03:57:30;;;;;;;45.63;34.50;;;16.60;99.90;;;;;;4381956;32;20179;-69
2021/09/11 03:59:58;;;;;;;44.00;34.43;;;16.60;99.90;;;;;;4407529;32;20306;-70
2021/09/11 04:02:25;;;;;;;45.30;35.27;;;16.60;99.90;;;;;;4406758;32;20178;-69
2021/09/11 04:04:52;;;;;;;47.00;35.37;;;16.50;99.90;;;;;;4407160;32;20166;-69
2021/09/11 04:07:19;;;;;;;46.20;35.07;;;16.60;99.90;;;;;;4406210;32;20155;-69
2021/09/11 04:09:45;;;;;;;46.17;34.30;;;16.60;99.90;;;;;;4406455;32;20211;-72
2021/09/11 04:12:12;;;;;;;43.57;33.57;;;16.60;99.90;;;;;;4391655;32;20635;-69
2021/09/11 04:14:39;;;;;;;42.07;34.70;;;16.60;99.90;;;;;;4401867;32;20147;-70
2021/09/11 04:17:07;;;;;;;39.17;34.43;;;16.70;99.90;;;;;;4393257;32;20159;-70
2021/09/11 04:19:34;;;;;;;45.30;34.97;;;16.70;99.90;;;;;;4390842;32;20204;-71
2021/09/11 04:22:01;;;;;;;47.53;37.27;;;16.70;99.90;;;;;;4404942;32;20219;-71
2021/09/11 04:24:28;;;;;;;48.57;34.83;;;16.70;99.90;;;;;;4405967;32;20207;-70
2021/09/11 04:26:54;;;;;;;49.73;34.97;;;16.60;99.90;;;;;;4392926;32;20148;-70
2021/09/11 04:29:21;;;;;;;49.37;35.60;;;16.70;99.90;;;;;;4390458;32;20149;-70
2021/09/11 04:31:48;;;;;;;45.23;34.80;;;16.70;99.90;;;;;;4403540;32;20622;-69
2021/09/11 04:34:16;;;;;;;45.03;30.73;;;16.70;99.90;;;;;;4406506;32;20151;-69
2021/09/11 04:36:43;;;;;;;38.37;32.27;;;16.70;99.90;;;;;;4403909;32;20223;-69
2021/09/11 04:39:10;;;;;;;38.90;31.67;;;16.80;99.90;;;;;;4399755;32;20160;-69
2021/09/11 04:41:37;;;;;;;41.13;32.90;;;16.80;99.90;;;;;;4390483;32;20148;-69
2021/09/11 04:44:04;;;;;;;40.73;31.17;;;16.80;99.90;;;;;;4390645;32;20170;-70
2021/09/11 04:46:31;;;;;;;40.67;31.07;;;16.80;99.90;;;;;;4390673;32;20147;-72
2021/09/11 04:48:57;;;;;;;42.30;32.73;;;16.80;99.90;;;;;;4391912;32;20183;-70
2021/09/11 04:51:26;;;;;;;42.93;31.83;;;16.80;99.90;;;;;;4390380;32;20164;-69
2021/09/11 04:53:52;;;;;;;37.33;31.97;;;16.80;99.90;;;;;;4390229;32;20148;-70
2021/09/11 04:56:20;;;;;;;44.67;31.43;;;16.80;99.90;;;;;;4390830;32;20584;-71
2021/09/11 04:58:47;;;;;;;42.53;34.13;;;16.80;99.90;;;;;;4392287;32;20585;-69
2021/09/11 05:01:14;;;;;;;43.20;32.40;;;16.80;99.90;;;;;;4405551;32;20147;-70
2021/09/11 05:03:40;;;;;;;41.70;32.90;;;16.80;99.90;;;;;;4391983;32;20167;-70
2021/09/11 05:06:07;;;;;;;42.93;34.07;;;16.80;99.90;;;;;;4391875;32;20265;-69
2021/09/11 05:08:35;;;;;;;41.37;32.43;;;16.80;99.90;;;;;;4396559;32;20178;-69
2021/09/11 05:11:02;;;;;;;51.10;33.70;;;16.80;99.90;;;;;;4397357;32;20161;-70
2021/09/11 05:13:29;;;;;;;43.47;33.93;;;16.80;99.90;;;;;;4397476;32;20248;-71
2021/09/11 05:15:56;;;;;;;42.17;31.70;;;16.80;99.90;;;;;;4392027;32;20223;-69
2021/09/11 05:18:22;;;;;;;48.47;33.20;;;16.80;99.90;;;;;;4397755;32;20172;-70
2021/09/11 05:20:49;;;;;;;47.70;35.23;;;16.80;99.90;;;;;;4397777;32;20243;-69
2021/09/11 05:23:16;;;;;;;48.87;33.90;;;16.80;99.90;;;;;;4392560;32;20175;-69
2021/09/11 05:25:44;;;;;;;41.77;35.10;;;16.80;99.90;;;;;;4395776;32;20175;-70
2021/09/11 05:28:11;;;;;;;42.57;34.97;;;16.90;99.90;;;;;;4404524;32;20524;-69
2021/09/11 05:30:41;;;;;;;45.20;32.93;;;16.90;99.90;;;;;;4399003;32;20662;-71
2021/09/11 05:33:07;;;;;;;50.90;36.63;;;17.00;99.90;;;;;;4402636;32;20223;-69
2021/09/11 05:35:34;;;;;;;47.03;37.27;;;17.00;99.90;;;;;;4404118;32;20467;-69
2021/09/11 05:38:01;;;;;;;45.73;33.73;;;17.00;99.90;;;;;;4399484;32;20194;-69
2021/09/11 05:40:28;;;;;;;41.63;33.10;;;17.00;99.90;;;;;;4400716;32;20159;-69
2021/09/11 05:42:56;;;;;;;40.33;32.20;;;17.10;99.90;;;;;;4401795;32;20171;-69
2021/09/11 05:45:23;;;;;;;39.40;32.23;;;17.10;99.90;;;;;;4398972;32;20211;-70
2021/09/11 05:47:50;;;;;;;44.73;33.83;;;17.10;99.90;;;;;;4397153;32;20279;-69
2021/09/11 05:50:18;;;;;;;46.83;37.33;;;17.10;99.90;;;;;;4406293;32;20160;-69
2021/09/11 05:52:44;;;;;;;38.30;33.00;;;17.20;99.90;;;;;;4405082;32;20247;-69
2021/09/11 05:55:12;;;;;;;40.90;33.37;;;17.20;99.90;;;;;;4397301;32;20152;-69
2021/09/11 05:57:39;;;;;;;37.70;31.40;;;17.20;99.90;;;;;;4400652;32;20168;-68
2021/09/11 06:00:08;;;;;;;40.23;31.37;;;17.20;99.90;;;;;;4400329;32;20187;-69
2021/09/11 06:02:35;;;;;;;42.93;31.93;;;17.20;99.90;;;;;;4412469;32;20214;-69
2021/09/11 06:05:01;;;;;;;37.00;30.83;;;17.30;99.90;;;;;;4403433;32;20170;-68
2021/09/11 06:07:28;;;;;;;37.23;32.73;;;17.30;99.90;;;;;;4399514;32;20156;-68
2021/09/11 06:09:55;;;;;;;35.80;31.53;;;17.40;99.90;;;;;;4404082;32;20282;-68
2021/09/11 06:12:22;;;;;;;34.13;30.63;;;17.40;99.90;;;;;;4405453;32;20171;-69
2021/09/11 06:14:49;;;;;;;34.13;29.47;;;17.50;99.90;;;;;;4400314;32;20477;-69
2021/09/11 06:17:17;;;;;;;35.43;31.87;;;17.60;99.90;;;;;;4410995;32;20147;-71
2021/09/11 06:19:44;;;;;;;32.03;28.43;;;17.40;99.90;;;;;;4411877;32;20690;-71
2021/09/11 06:22:13;;;;;;;33.63;30.17;;;17.40;99.90;;;;;;4403281;32;20156;-68
2021/09/11 06:24:41;;;;;;;35.80;30.63;;;17.40;99.90;;;;;;4398120;32;20185;-70
2021/09/11 06:27:08;;;;;;;32.07;28.13;;;17.40;99.90;;;;;;4396216;32;20161;-72
2021/09/11 06:29:35;;;;;;;32.10;28.93;;;17.30;99.90;;;;;;4394711;32;20175;-70
2021/09/11 06:32:02;;;;;;;32.47;27.30;;;17.30;99.90;;;;;;4404321;32;20529;-70
2021/09/11 06:34:30;;;;;;;32.00;28.57;;;17.30;99.90;;;;;;4394731;32;20175;-70
2021/09/11 06:36:57;;;;;;;34.43;31.20;;;17.40;99.90;;;;;;4399309;32;20149;-71
2021/09/11 06:39:25;;;;;;;33.03;29.60;;;17.50;99.90;;;;;;4401942;32;20194;-70
2021/09/11 06:41:52;;;;;;;33.17;28.60;;;17.40;99.90;;;;;;4400600;32;20279;-70
2021/09/11 06:44:19;;;;;;;33.63;30.33;;;17.40;99.90;;;;;;4400160;32;20163;-71
2021/09/11 06:46:46;;;;;;;31.00;27.93;;;17.40;99.90;;;;;;4395746;32;22072;-70
2021/09/11 06:49:14;;;;;;;31.83;28.60;;;17.40;99.90;;;;;;4395988;32;20204;-70
2021/09/11 06:51:43;;;;;;;32.93;28.43;;;17.50;99.90;;;;;;4391635;32;20152;-70
2021/09/11 06:54:09;;;;;;;32.67;29.40;;;17.50;99.90;;;;;;4398405;32;20186;-69
2021/09/11 06:56:37;;;;;;;30.07;26.87;;;17.60;99.90;;;;;;4397817;32;20584;-69
2021/09/11 06:59:04;;;;;;;33.13;29.67;;;17.70;99.90;;;;;;4398560;32;20152;-69
2021/09/11 07:01:34;;;;;;;36.60;32.93;;;17.60;99.90;;;;;;4400417;32;20164;-69
2021/09/11 07:04:00;;;;;;;34.03;31.03;;;17.70;99.90;;;;;;4399395;32;20163;-69
2021/09/11 07:06:30;;;;;;;31.73;28.60;;;17.70;99.90;;;;;;4399507;32;20152;-69
2021/09/11 07:08:59;;;;;;;32.03;28.73;;;17.70;99.90;;;;;;4397956;32;20179;-69
2021/09/11 07:11:25;;;;;;;31.70;28.80;;;17.80;99.90;;;;;;4397744;32;20178;-69
2021/09/11 07:13:52;;;;;;;36.43;32.97;;;17.90;99.90;;;;;;4398206;32;20174;-69
2021/09/11 07:16:19;;;;;;;32.10;29.20;;;17.90;99.90;;;;;;4398111;32;20152;-69
2021/09/11 07:18:46;;;;;;;32.47;29.27;;;17.90;99.90;;;;;;4399419;32;20511;-69
2021/09/11 07:21:13;;;;;;;37.67;33.70;;;17.90;99.90;;;;;;4399053;32;20207;-68
2021/09/11 07:23:40;;;;;;;33.53;30.03;;;17.80;99.90;;;;;;4401081;32;20156;-68
2021/09/11 07:26:08;;;;;;;31.43;28.67;;;17.80;99.90;;;;;;4396770;32;20182;-68
2021/09/11 07:28:35;;;;;;;33.47;29.57;;;18.00;99.90;;;;;;4399442;32;20170;-68
2021/09/11 07:31:02;;;;;;;34.77;30.77;;;17.90;99.90;;;;;;4404271;32;20194;-70
2021/09/11 07:33:28;;;;;;;33.97;30.97;;;18.10;99.90;;;;;;4406287;32;20215;-68
2021/09/11 07:35:55;;;;;;;34.60;31.13;;;18.10;99.90;;;;;;4406164;32;20156;-68
2021/09/11 07:38:22;;;;;;;30.03;26.93;;;18.20;99.90;;;;;;4401471;32;20167;-68
2021/09/11 07:40:49;;;;;;;33.83;30.63;;;18.20;99.90;;;;;;4398629;32;20218;-68
2021/09/11 07:43:17;;;;;;;33.80;30.07;;;18.40;99.90;;;;;;4399013;32;20914;-70
2021/09/11 07:45:46;;;;;;;32.33;29.43;;;18.50;99.90;;;;;;4395074;32;20179;-68
2021/09/11 07:48:13;;;;;;;33.33;30.33;;;18.70;99.90;;;;;;4399772;32;20469;-69
2021/09/11 07:50:40;;;;;;;34.77;31.63;;;18.80;99.90;;;;;;4399727;32;20223;-69
2021/09/11 07:53:07;;;;;;;33.83;31.07;;;18.90;99.90;;;;;;4398194;32;20224;-68
2021/09/11 07:55:34;;;;;;;37.90;34.63;;;19.00;99.90;;;;;;4397128;32;20184;-68
2021/09/11 07:58:01;;;;;;;36.87;33.97;;;19.10;99.90;;;;;;4397370;32;20250;-68
2021/09/11 08:00:30;;;;;;;40.57;36.97;;;19.00;99.90;;;;;;4398491;32;20156;-68
2021/09/11 08:02:58;;;;;;;38.60;35.30;;;19.00;99.90;;;;;;4398982;32;20449;-70
2021/09/11 08:05:25;;;;;;;39.47;36.27;;;19.00;99.90;;;;;;4397076;32;20152;-68
2021/09/11 08:07:52;;;;;;;37.83;35.10;;;19.10;99.90;;;;;;4396628;32;20215;-68
2021/09/11 08:10:20;;;;;;;38.03;35.03;;;19.20;99.90;;;;;;4398721;32;20185;-69
2021/09/11 08:12:48;;;;;;;42.73;39.33;;;19.20;99.90;;;;;;4394456;32;20171;-70
2021/09/11 08:15:16;;;;;;;38.03;34.53;;;19.30;99.90;;;;;;4390993;32;20175;-68
2021/09/11 08:17:44;;;;;;;39.17;35.63;;;19.30;99.90;;;;;;4392486;32;20156;-68
2021/09/11 08:20:12;;;;;;;41.80;37.83;;;19.40;99.90;;;;;;4391977;32;20178;-69
2021/09/11 08:22:39;;;;;;;41.80;38.57;;;19.50;99.90;;;;;;4394260;32;20159;-68
2021/09/11 08:25:07;;;;;;;42.23;38.87;;;19.60;99.90;;;;;;4396145;32;20167;-69
2021/09/11 08:27:34;;;;;;;39.77;36.20;;;19.60;99.90;;;;;;4397724;32;20206;-72
2021/09/11 08:30:01;;;;;;;38.50;35.67;;;19.60;99.90;;;;;;4396350;32;20232;-68
2021/09/11 08:32:28;;;;;;;43.83;40.47;;;19.60;99.90;;;;;;4399141;32;20567;-68
2021/09/11 08:34:56;;;;;;;46.20;42.57;;;19.60;99.90;;;;;;4405834;32;20174;-70
2021/09/11 08:37:23;;;;;;;43.47;39.33;;;19.60;99.90;;;;;;4405626;32;20151;-68
2021/09/11 08:39:50;;;;;;;42.87;39.03;;;19.50;99.90;;;;;;4402622;32;20159;-68
2021/09/11 08:42:20;;;;;;;49.00;44.80;;;19.50;99.90;;;;;;4397625;32;20531;-68
2021/09/11 08:44:48;;;;;;;40.63;36.80;;;19.50;99.90;;;;;;4402891;32;20174;-68
2021/09/11 08:47:15;;;;;;;43.17;39.37;;;19.50;99.90;;;;;;4405609;32;20171;-68
2021/09/11 08:49:42;;;;;;;45.00;40.87;;;19.40;99.90;;;;;;4405400;32;20341;-68
2021/09/11 08:52:10;;;;;;;44.43;40.73;;;19.40;99.90;;;;;;4406963;32;20177;-68
2021/09/11 08:54:37;;;;;;;43.60;39.70;;;19.20;99.90;;;;;;4403526;32;20160;-68
2021/09/11 08:57:20;;;;;;;37.13;33.97;;;19.20;99.90;;;;;;4405635;32;20223;-68
2021/09/11 08:59:47;;;;;;;41.50;37.83;;;19.20;99.90;;;;;;4405522;32;20487;-68
2021/09/11 09:02:14;;;;;;;43.47;39.57;;;19.20;99.90;;;;;;4406977;32;20167;-68
2021/09/11 09:04:50;;;;;;;46.30;41.77;;;19.20;99.90;;;;;;4405479;32;20156;-67
2021/09/11 09:07:35;;;;;;;46.67;41.67;;;19.40;99.90;;;;;;4399226;32;20152;-68
2021/09/11 09:10:06;;;;;;;46.37;42.37;;;19.70;99.90;;;;;;4400390;32;20242;-68
2021/09/11 09:12:34;;;;;;;47.40;43.57;;;19.90;99.90;;;;;;4399899;32;20345;-68
2021/09/11 09:15:05;;;;;;;49.50;45.27;;;20.10;99.90;;;;;;4398426;32;20466;-67
2021/09/11 09:17:43;;;;;;;49.93;46.03;;;20.30;99.90;;;;;;4384240;32;20628;-68
2021/09/11 09:20:12;;;;;;;51.17;47.20;;;20.80;99.90;;;;;;4396250;32;20227;-68
2021/09/11 09:22:41;;;;;;;55.80;52.03;;;21.20;99.90;;;;;;4403243;32;20155;-67
2021/09/11 09:25:20;;;;;;;59.33;54.97;;;21.40;99.90;;;;;;4401223;32;20223;-69
2021/09/11 09:27:50;;;;;;;54.73;50.33;;;21.50;99.90;;;;;;4391622;32;20148;-67
2021/09/11 09:30:19;;;;;;;56.90;52.80;;;21.30;99.90;;;;;;4401473;32;20159;-67
2021/09/11 09:32:49;;;;;;;59.37;55.07;;;21.20;99.90;;;;;;4399038;32;20211;-68
2021/09/11 09:35:24;;;;;;;56.27;51.90;;;21.50;99.90;;;;;;4397413;32;20271;-68
2021/09/11 09:37:56;;;;;;;56.20;51.97;;;21.40;99.90;;;;;;4396368;32;20231;-68
2021/09/11 09:40:51;;;;;;;56.33;51.83;;;21.40;99.90;;;;;;4404865;32;20163;-70
2021/09/11 09:43:32;;;;;;;56.33;52.13;;;21.30;99.90;;;;;;4353871;33;20181;-69
2021/09/11 09:46:04;;;;;;;58.97;54.63;;;21.40;99.90;;;;;;4353739;32;20161;-68
2021/09/11 09:48:33;;;;;;;52.17;48.57;;;21.40;99.90;;;;;;4351857;32;20181;-69
2021/09/11 09:51:04;;;;;;;57.67;53.60;;;21.30;99.90;;;;;;4348639;32;20169;-70
2021/09/11 09:53:32;;;;;;;60.30;55.47;;;21.30;99.90;;;;;;4358268;33;20172;-69
2021/09/11 09:56:00;;;;;;;61.67;56.93;;;21.20;99.90;;;;;;4359199;33;20156;-68
2021/09/11 09:58:27;;;;;;;56.80;52.93;;;21.20;99.90;;;;;;4355558;33;20169;-67
2021/09/11 10:00:54;;;;;;;62.73;58.20;;;21.20;99.90;;;;;;4347905;33;20303;-68
2021/09/11 10:03:20;;;;;;;67.53;62.63;;;21.10;99.90;;;;;;4357836;33;20187;-68
2021/09/11 10:05:50;;;;;;;60.50;55.93;;;21.00;99.90;;;;;;4359161;32;20523;-68
2021/09/11 10:08:19;;;;;;;61.87;57.43;;;21.00;99.90;;;;;;4359380;32;20165;-68
2021/09/11 10:10:50;;;;;;;90.00;84.70;;;21.10;99.90;;;;;;4356560;32;20557;-69
2021/09/11 10:13:22;;;;;;;61.33;56.97;;;21.30;99.90;;;;;;4350234;32;20239;-69
2021/09/11 10:15:56;;;;;;;54.90;51.13;;;21.50;99.90;;;;;;4353380;32;20179;-67
2021/09/11 10:18:50;;;;;;;60.53;56.47;;;21.40;99.90;;;;;;4355625;32;20211;-69
2021/09/11 10:21:22;;;;;;;77.17;72.47;;;21.30;99.90;;;;;;4363412;32;20196;-69
2021/09/11 10:24:31;;;;;;;58.63;55.07;;;21.60;99.90;;;;;;4376132;32;20148;-69
2021/09/11 10:27:11;;;;;;;63.07;58.83;;;21.90;99.90;;;;;;4329005;33;20276;-66
2021/09/11 10:29:52;;;;;;;56.13;52.13;;;22.30;99.90;;;;;;4331778;33;20208;-69
2021/09/11 10:32:21;;;;;;;57.80;54.23;;;22.60;99.90;;;;;;4329656;33;20521;-66
2021/09/11 10:34:54;;;;;;;54.40;51.00;;;23.30;99.90;;;;;;4330236;33;20173;-68
2021/09/11 10:37:29;;;;;;;56.30;52.90;;;23.80;99.90;;;;;;4329897;33;20220;-66
2021/09/11 10:40:44;;;;;;;50.13;47.10;;;23.70;99.90;;;;;;4330062;33;20562;-67
2021/09/11 10:43:19;;;;;;;50.70;47.37;;;23.00;99.90;;;;;;4273231;33;20662;-66
2021/09/11 10:45:55;;;;;;;58.50;54.70;;;22.30;99.90;;;;;;4272113;33;20617;-66
2021/09/11 10:48:49;;;;;;;57.13;53.50;;;22.30;99.90;;;;;;4273791;33;20294;-66
2021/09/11 10:51:36;;;;;;;56.57;52.77;;;22.50;99.90;;;;;;4271602;33;20159;-66
2021/09/11 10:54:12;;;;;;;54.23;51.00;;;22.60;99.90;;;;;;4269968;33;20268;-66
2021/09/11 10:56:44;;;;;;;54.10;50.83;;;22.70;99.90;;;;;;4284447;33;20662;-66
2021/09/11 10:59:27;;;;;;;55.73;52.47;;;22.60;99.90;;;;;;4315806;33;20221;-67
2021/09/11 11:01:59;;;;;;;53.13;49.73;;;22.60;99.90;;;;;;4272463;33;20222;-68
2021/09/11 11:04:28;;;;;;;52.03;48.83;;;22.50;99.90;;;;;;4345654;33;20157;-67
2021/09/11 11:06:56;;;;;;;55.80;52.50;;;22.50;99.90;;;;;;4344767;33;20295;-69
2021/09/11 11:09:23;;;;;;;56.57;53.10;;;22.60;99.90;;;;;;4344103;33;20534;-66
2021/09/11 11:11:52;;;;;;;55.13;52.07;;;22.50;99.90;;;;;;4344151;33;20211;-67
2021/09/11 11:14:19;;;;;;;58.17;54.77;;;22.30;99.90;;;;;;4341536;33;20176;-67
2021/09/11 11:16:48;;;;;;;54.77;51.63;;;22.10;99.90;;;;;;4344686;33;20506;-67
2021/09/11 11:19:23;;;;;;;54.93;51.63;;;22.40;99.90;;;;;;4376625;32;20220;-67
2021/09/11 11:21:55;;;;;;;52.90;49.90;;;22.80;99.90;;;;;;4407768;32;20489;-67
2021/09/11 11:24:22;;;;;;;52.53;49.47;;;23.00;99.90;;;;;;4399260;32;20220;-66
2021/09/11 11:26:49;;;;;;;56.17;52.90;;;23.00;99.90;;;;;;4401881;32;20147;-66
2021/09/11 11:29:18;;;;;;;57.63;54.17;;;22.80;99.90;;;;;;4394522;32;20160;-67
2021/09/11 11:31:46;;;;;;;59.63;56.17;;;22.40;99.90;;;;;;4392494;32;20221;-68
2021/09/11 11:34:15;;;;;;;62.87;59.27;;;22.50;99.90;;;;;;4402585;32;20357;-69
2021/09/11 11:36:52;;;;;;;58.23;54.73;;;22.30;99.90;;;;;;4405089;32;20212;-66
2021/09/11 11:39:24;;;;;;;60.33;56.87;;;22.30;99.90;;;;;;4396104;32;20618;-65
2021/09/11 11:42:00;;;;;;;56.67;53.20;;;22.50;99.90;;;;;;4393964;32;20175;-66
2021/09/11 11:44:28;;;;;;;55.77;52.63;;;22.80;99.90;;;;;;4406362;32;20629;-66
2021/09/11 11:47:02;;;;;;;54.53;51.37;;;23.40;99.90;;;;;;4406080;32;20215;-67
2021/09/11 11:49:36;;;;;;;55.50;52.20;;;23.80;99.90;;;;;;4402068;32;20250;-67
2021/09/11 11:52:05;;;;;;;57.27;53.87;;;23.70;99.90;;;;;;4317018;32;2851157;-67
2021/09/11 11:54:34;;;;;;;51.53;48.60;;;23.60;99.90;;;;;;4407222;32;20151;-67
2021/09/11 11:57:09;;;;;;;57.60;54.20;;;23.40;99.90;;;;;;4406555;32;20595;-69
2021/09/11 11:59:36;;;;;;;54.37;51.30;;;23.40;99.90;;;;;;4399646;32;20164;-66
2021/09/11 12:02:20;;;;;;;57.90;54.63;;;23.00;99.90;;;;;;4399286;32;20197;-67
2021/09/11 12:04:49;;;;;;;53.53;50.23;;;22.90;99.90;;;;;;4393118;32;20152;-68
2021/09/11 12:07:30;;;;;;;56.45;53.20;;;23.10;99.90;;;;;;4405868;32;20202;-67
2021/09/11 12:10:01;;;;;;;52.47;49.37;;;23.50;99.90;;;;;;4393201;32;20573;-65
2021/09/11 12:12:44;;;;;;;52.30;49.50;;;23.40;99.90;;;;;;4398115;32;20180;-67
2021/09/11 12:15:13;;;;;;;51.23;48.37;;;23.40;99.90;;;;;;4391336;32;20160;-66
2021/09/11 12:17:52;;;;;;;53.03;50.23;;;23.10;99.90;;;;;;4395124;32;20175;-67
2021/09/11 12:20:21;;;;;;;57.73;54.60;;;22.90;99.90;;;;;;4405463;32;20231;-69
2021/09/11 12:23:07;;;;;;;52.27;49.37;;;22.90;99.90;;;;;;4391566;32;20219;-66
2021/09/11 12:25:48;;;;;;;53.47;50.57;;;23.30;99.90;;;;;;4400424;32;20186;-67
2021/09/11 12:28:46;;;;;;;46.80;44.43;;;23.40;99.90;;;;;;4400074;32;20262;-68
2021/09/11 12:31:22;;;;;;;50.07;47.53;;;23.30;99.90;;;;;;4365884;32;20239;-66
2021/09/11 12:33:51;;;;;;;49.33;46.77;;;23.20;99.90;;;;;;4366084;32;20314;-66
2021/09/11 12:36:30;;;;;;;48.40;45.83;;;23.10;99.90;;;;;;4364008;32;20182;-68